createdAt,value
2019-02-21T00:00:24.036Z,15.6
2019-02-21T00:05:16.707Z,16.3
2019-02-21T00:10:16.960Z,18.1
2019-02-21T00:15:18.531Z,19.2
2019-02-21T00:20:16.851Z,21.4
2019-02-21T00:25:19.236Z,18.4
2019-02-21T00:30:35.033Z,17.6
2019-02-21T00:35:17.349Z,8.6
2019-02-21T00:40:17.219Z,17.7
2019-02-21T00:45:23.745Z,18.7
2019-02-21T00:50:23.511Z,20.2
2019-02-21T00:55:22.082Z,18.8
2019-02-21T01:00:19.492Z,16
2019-02-21T01:05:17.412Z,19.5
2019-02-21T01:10:22.841Z,17.8
2019-02-21T01:15:37.490Z,20.7
2019-02-21T01:20:17.272Z,19.3
2019-02-21T01:25:22.552Z,19.5
2019-02-21T01:30:28.917Z,21.3
2019-02-21T01:35:17.367Z,20.6
2019-02-21T01:40:22.538Z,23.2
2019-02-21T01:45:17.017Z,19.6
2019-02-21T01:50:23.885Z,20.2
2019-02-21T01:55:32.187Z,21.8
2019-02-21T02:00:27.402Z,21.4
2019-02-21T02:05:18.847Z,20.4
2019-02-21T02:10:17.473Z,22.3
2019-02-21T02:15:21.930Z,24.4
2019-02-21T02:20:20.631Z,25.1
2019-02-21T02:25:18.777Z,22
2019-02-21T02:30:26.637Z,16.6
2019-02-21T02:35:17.601Z,23.6
2019-02-21T02:40:18.010Z,21.7
2019-02-21T02:45:17.926Z,22.6
2019-02-21T02:50:17.887Z,23.8
2019-02-21T02:55:17.166Z,20.7
2019-02-21T03:00:23.690Z,22
2019-02-21T03:05:17.446Z,15
2019-02-21T03:10:23.901Z,23.6
2019-02-21T03:15:23.456Z,23
2019-02-21T03:20:17.024Z,19
2019-02-21T03:25:23.135Z,23.3
2019-02-21T03:30:17.360Z,22.9
2019-02-21T03:35:16.901Z,21.2
2019-02-21T03:40:22.931Z,23.5
2019-02-21T03:45:16.834Z,23
2019-02-21T03:50:17.141Z,22.9
2019-02-21T03:55:28.124Z,25.2
2019-02-21T04:00:25.013Z,17.6
2019-02-21T04:05:17.418Z,24.3
2019-02-21T04:10:17.151Z,25.8
2019-02-21T04:15:22.479Z,13.1
2019-02-21T04:20:17.040Z,24.5
2019-02-21T04:25:19.259Z,13.9
2019-02-21T04:30:18.717Z,24.5
2019-02-21T04:35:22.200Z,24.3
2019-02-21T04:40:27.632Z,27.3
2019-02-21T04:45:17.091Z,21.3
2019-02-21T04:50:17.355Z,22.9
2019-02-21T04:55:32.507Z,26.8
2019-02-21T05:00:17.656Z,27.2
2019-02-21T05:05:37.669Z,25.9
2019-02-21T05:10:17.073Z,35.5
2019-02-21T05:15:17.377Z,32.7
2019-02-21T05:20:16.760Z,16.6
2019-02-21T05:25:22.010Z,25.2
2019-02-21T05:30:17.312Z,29.2
2019-02-21T05:35:27.397Z,42.7
2019-02-21T05:40:16.759Z,27
2019-02-21T05:45:29.142Z,25.5
2019-02-21T05:50:17.371Z,31.2
2019-02-21T05:55:17.366Z,24.4
2019-02-21T06:00:21.972Z,16.9
2019-02-21T06:05:22.950Z,25
2019-02-21T06:10:20.077Z,24.7
2019-02-21T06:15:18.782Z,20.2
2019-02-21T06:20:18.004Z,26.4
2019-02-21T06:25:17.613Z,20.5
2019-02-21T06:30:22.184Z,25.2
2019-02-21T06:35:16.891Z,24.7
2019-02-21T06:40:17.516Z,23.6
2019-02-21T06:45:25.272Z,19.4
2019-02-21T06:50:26.568Z,25.7
2019-02-21T06:55:20.497Z,17
2019-02-21T07:00:17.189Z,29.6
2019-02-21T07:05:23.836Z,23.9
2019-02-21T07:10:22.055Z,21.5
2019-02-21T07:15:17.355Z,23.7
2019-02-21T07:20:18.683Z,24.2
2019-02-21T07:25:16.851Z,23
2019-02-21T07:30:20.280Z,23.6
2019-02-21T07:35:18.655Z,23.7
2019-02-21T07:40:19.928Z,24.9
2019-02-21T07:45:25.072Z,22.6
2019-02-21T07:50:17.594Z,26.6
2019-02-21T07:55:17.230Z,21.1
2019-02-21T08:00:20.427Z,26.5
2019-02-21T08:05:27.473Z,23.8
2019-02-21T08:10:33.350Z,22.3
2019-02-21T08:15:17.331Z,16.5
2019-02-21T08:20:33.809Z,40.4
2019-02-21T08:25:19.105Z,24.9
2019-02-21T08:30:17.540Z,17.6
2019-02-21T08:35:24.300Z,26.4
2019-02-21T08:40:17.181Z,25.5
2019-02-21T08:45:17.884Z,14.9
2019-02-21T08:50:22.232Z,23.2
2019-02-21T08:55:22.049Z,20.9
2019-02-21T09:00:22.220Z,26.6
2019-02-21T09:05:17.495Z,20.9
2019-02-21T09:10:22.204Z,24.1
2019-02-21T09:15:18.071Z,26.1
2019-02-21T09:20:27.587Z,31.2
2019-02-21T09:25:17.447Z,23.3
2019-02-21T09:30:19.956Z,24.9
2019-02-21T09:35:17.371Z,18.6
2019-02-21T09:40:17.246Z,26.6
2019-02-21T09:45:26.705Z,26.9
2019-02-21T09:50:19.372Z,22.8
2019-02-21T09:55:16.847Z,23.5
2019-02-21T10:00:27.312Z,15.9
2019-02-21T10:05:19.035Z,25
2019-02-21T10:10:21.960Z,24.5
2019-02-21T10:15:32.699Z,23.5
2019-02-21T10:20:20.710Z,18.8
2019-02-21T10:25:17.200Z,23.6
2019-02-21T10:30:17.231Z,25.2
2019-02-21T10:35:17.801Z,55.5
2019-02-21T10:40:47.628Z,25.1
2019-02-21T10:45:17.673Z,24.4
2019-02-21T10:50:17.830Z,25
2019-02-21T10:55:23.195Z,30
2019-02-21T11:00:28.279Z,24.4
2019-02-21T11:05:17.626Z,24
2019-02-21T11:10:19.105Z,23.8
2019-02-21T11:15:22.700Z,25.8
2019-02-21T11:20:16.904Z,25.7
2019-02-21T11:25:23.314Z,33.4
2019-02-21T11:30:18.885Z,24.1
2019-02-21T11:35:17.061Z,24.9
2019-02-21T11:40:17.452Z,29.6
2019-02-21T11:45:21.998Z,24.3
2019-02-21T11:50:42.068Z,23.9
2019-02-21T11:55:17.188Z,25.5
2019-02-21T12:00:24.870Z,25.3
2019-02-21T12:05:27.957Z,19.4
2019-02-21T12:10:22.473Z,27.1
2019-02-21T12:15:18.378Z,21.5
2019-02-21T12:20:16.874Z,27
2019-02-21T12:25:16.835Z,18.6
2019-02-21T12:30:17.714Z,28.5
2019-02-21T12:35:30.702Z,19.2
2019-02-21T12:40:27.510Z,26.8
2019-02-21T12:45:38.770Z,29
2019-02-21T12:50:23.140Z,36.5
2019-02-21T12:55:27.522Z,30.1
2019-02-21T13:00:29.430Z,21
2019-02-21T13:05:40.275Z,30.8
2019-02-21T13:10:17.870Z,17.5
2019-02-21T13:15:23.757Z,33.3
2019-02-21T13:20:21.015Z,23.2
2019-02-21T13:25:23.022Z,30.7
2019-02-21T13:30:32.094Z,35.9
2019-02-21T13:35:30.488Z,26.6
2019-02-21T13:40:36.550Z,31.3
2019-02-21T13:45:39.384Z,41.2
2019-02-21T13:50:25.512Z,32.1
2019-02-21T13:55:36.749Z,34.4
2019-02-21T14:00:22.393Z,35
2019-02-21T14:05:27.031Z,23.2
2019-02-21T14:10:17.071Z,35
2019-02-21T14:15:47.432Z,54.6
2019-02-21T14:20:46.310Z,31.6
2019-02-21T14:25:23.570Z,30.7
2019-02-21T14:30:26.911Z,29.7
2019-02-21T14:35:25.106Z,31
2019-02-21T14:40:19.633Z,23.5
2019-02-21T14:45:23.535Z,31.7
2019-02-21T14:55:19.061Z,34.3
2019-02-21T15:00:34.083Z,31.1
2019-02-21T15:05:45.031Z,35.4
2019-02-21T15:10:23.990Z,34.3
2019-02-21T15:15:17.111Z,24
2019-02-21T15:20:36.543Z,33.8
2019-02-21T15:26:01.591Z,32.3
2019-02-21T15:30:17.897Z,34.5
2019-02-21T15:35:42.038Z,37
2019-02-21T15:40:22.606Z,31
2019-02-21T15:45:27.450Z,32.6
2019-02-21T15:55:17.048Z,29.5
2019-02-21T16:00:57.590Z,27.9
2019-02-21T16:05:43.030Z,31.6
2019-02-21T16:10:20.240Z,25.7
2019-02-21T16:15:17.181Z,25.6
2019-02-21T16:20:17.179Z,20.6
2019-02-21T16:25:20.950Z,22.2
2019-02-21T16:30:28.271Z,21
2019-02-21T16:35:22.662Z,20.1
2019-02-21T16:40:21.271Z,17.5
2019-02-21T16:45:21.110Z,8.8
2019-02-21T16:50:29.037Z,14.8
2019-02-21T16:55:22.941Z,12.8
2019-02-21T17:00:38.878Z,13
2019-02-21T17:05:26.988Z,8.1
2019-02-21T17:10:22.865Z,12.1
2019-02-21T17:15:18.151Z,12.8
2019-02-21T17:20:18.256Z,7.8
2019-02-21T17:25:26.391Z,12.7
2019-02-21T17:30:17.120Z,13.8
2019-02-21T17:35:42.191Z,13.8
2019-02-21T17:40:17.318Z,16.4
2019-02-21T17:45:17.528Z,20.8
2019-02-21T17:50:39.590Z,17.7
2019-02-21T17:55:49.910Z,14.4
2019-02-21T18:00:17.512Z,18.9
2019-02-21T18:10:17.277Z,15.7
2019-02-21T18:20:21.278Z,21.6
2019-02-21T18:25:17.343Z,23.9
2019-02-21T18:30:22.564Z,21.9
2019-02-21T18:35:17.531Z,23.6
2019-02-21T18:40:18.569Z,22.4
2019-02-21T18:45:16.919Z,20.1
2019-02-21T18:50:37.335Z,19.9
2019-02-21T19:00:17.141Z,15.7
2019-02-21T19:05:22.943Z,15.3
2019-02-21T19:10:17.590Z,20.5
2019-02-21T19:15:32.199Z,20.5
2019-02-21T19:21:00.709Z,21.5
2019-02-21T19:25:20.550Z,21.9
2019-02-21T19:30:17.191Z,12.7
2019-02-21T19:35:27.801Z,23.1
2019-02-21T19:40:28.471Z,15.3
2019-02-21T19:50:18.320Z,23
2019-02-21T19:55:27.462Z,23
2019-02-21T20:00:18.104Z,24
2019-02-21T20:05:47.028Z,23.7
2019-02-21T20:10:54.631Z,25.1
2019-02-21T20:20:22.381Z,31.7
2019-02-21T20:25:21.843Z,31.9
2019-02-21T20:30:32.695Z,35.5
2019-02-21T20:40:50.182Z,35.5
2019-02-21T20:45:32.091Z,40.3
2019-02-21T20:55:22.498Z,38.6
2019-02-21T21:00:22.089Z,25.2
2019-02-21T21:05:37.421Z,41.8
2019-02-21T21:10:20.344Z,42.8
2019-02-21T21:20:26.899Z,44.2
2019-02-21T21:25:33.036Z,32.3
2019-02-21T21:36:10.118Z,23
2019-02-21T21:40:22.629Z,54
2019-02-21T21:45:26.902Z,39.3
2019-02-21T21:50:41.672Z,32.8
2019-02-21T21:55:19.991Z,55.1
2019-02-21T22:00:48.664Z,56.9
2019-02-21T22:05:24.711Z,58.4
2019-02-21T22:10:18.409Z,43
2019-02-21T22:16:02.551Z,57.8
2019-02-21T22:20:17.343Z,58.5
2019-02-21T22:25:37.119Z,53.7
2019-02-21T22:30:37.301Z,37.9
2019-02-21T22:40:24.581Z,52.5
2019-02-21T22:50:19.240Z,58.8
2019-02-21T22:55:32.277Z,50.2
2019-02-21T23:00:23.201Z,60
2019-02-21T23:05:53.910Z,59.4
2019-02-21T23:10:22.923Z,58
2019-02-21T23:15:27.313Z,57.9
2019-02-21T23:20:16.800Z,58.8
2019-02-21T23:25:18.060Z,59.6
2019-02-21T23:35:38.126Z,57.2
2019-02-21T23:40:22.449Z,50.7
2019-02-21T23:45:18.219Z,57.8
2019-02-21T23:50:18.434Z,56.2
2019-02-21T23:55:24.950Z,35.9
